Time;durP1;ratioP1;P1;durP2;ratioP2;P2;SDS_P1;SDS_P2;PMS_P1;PMS_P2;Temp;Humidity;BMP_temperature;BMP_pressure;BME280_temperature;BME280_humidity;BME280_pressure;Samples;Min_cycle;Max_cycle;Signal;HPM_P1;HPM_P2
2020/12/10 00:02:58;;;;;;;75.17;33.00;;;5.50;99.90;;;;;;10368620;28;20220;-87
2020/12/10 00:08:20;;;;;;;84.73;34.90;;;5.40;99.90;;;;;;10380331;28;20194;-87
2020/12/10 00:13:43;;;;;;;82.30;31.93;;;5.30;99.90;;;;;;10373391;28;20207;-84
2020/12/10 00:19:04;;;;;;;82.23;33.00;;;5.10;99.90;;;;;;10345211;28;20217;-87
2020/12/10 00:24:26;;;;;;;80.03;33.80;;;5.30;99.90;;;;;;10381238;28;20651;-86
2020/12/10 00:29:49;;;;;;;82.27;33.90;;;5.30;99.90;;;;;;10380637;28;20221;-86
2020/12/10 00:35:11;;;;;;;70.90;32.67;;;5.40;99.90;;;;;;10381431;28;20213;-85
2020/12/10 00:40:32;;;;;;;83.87;32.67;;;5.30;99.90;;;;;;10381825;28;20222;-88
2020/12/10 00:45:55;;;;;;;89.97;35.83;;;5.40;99.90;;;;;;10381341;28;20193;-87
2020/12/10 00:51:17;;;;;;;77.67;32.70;;;5.40;99.90;;;;;;10381733;28;20558;-88
2020/12/10 00:56:38;;;;;;;109.40;35.07;;;5.20;99.90;;;;;;10379863;28;20214;-88
2020/12/10 01:02:01;;;;;;;99.87;34.60;;;5.40;99.90;;;;;;10372207;28;20218;-87
2020/12/10 01:07:22;;;;;;;99.53;33.77;;;5.40;99.90;;;;;;10380003;28;20210;-86
2020/12/10 01:12:44;;;;;;;83.97;32.33;;;5.30;99.90;;;;;;10380123;28;20289;-86
2020/12/10 01:18:07;;;;;;;81.03;31.17;;;5.40;99.90;;;;;;10370702;28;20214;-88
2020/12/10 01:23:28;;;;;;;77.90;30.33;;;5.30;99.90;;;;;;10421411;28;20702;-86
2020/12/10 01:28:50;;;;;;;76.03;28.73;;;5.10;99.90;;;;;;10408455;28;20231;-87
2020/12/10 01:34:13;;;;;;;65.03;27.20;;;5.00;99.90;;;;;;10392368;28;20205;-87
2020/12/10 01:39:34;;;;;;;65.47;26.27;;;4.90;99.90;;;;;;10389133;28;20206;-85
2020/12/10 01:44:56;;;;;;;66.43;25.90;;;5.10;99.90;;;;;;10406262;28;20230;-86
2020/12/10 01:50:19;;;;;;;59.07;25.27;;;5.30;99.90;;;;;;10387299;28;20222;-86
2020/12/10 01:55:40;;;;;;;58.63;24.83;;;5.50;99.90;;;;;;10380086;28;20214;-87
2020/12/10 02:01:02;;;;;;;63.13;25.57;;;5.50;99.90;;;;;;10347499;28;20226;-87
2020/12/10 02:06:25;;;;;;;53.03;23.20;;;5.40;99.90;;;;;;10374478;28;20556;-87
2020/12/10 02:11:47;;;;;;;45.90;21.30;;;5.20;99.90;;;;;;10386607;28;20297;-87
2020/12/10 02:17:08;;;;;;;46.50;21.03;;;5.30;99.90;;;;;;10365582;28;20727;-87
2020/12/10 02:22:31;;;;;;;45.47;20.33;;;5.10;99.90;;;;;;10424155;28;20209;-85
2020/12/10 02:27:54;;;;;;;44.80;22.00;;;5.30;99.90;;;;;;10423129;28;20671;-85
2020/12/10 02:33:15;;;;;;;46.03;21.93;;;5.30;99.90;;;;;;10392047;28;20218;-85
2020/12/10 02:38:37;;;;;;;46.00;20.87;;;5.30;99.90;;;;;;10379707;28;20218;-85
2020/12/10 02:44:00;;;;;;;42.63;20.00;;;5.30;99.90;;;;;;10367948;28;20198;-85
2020/12/10 02:49:21;;;;;;;45.40;21.17;;;5.50;99.90;;;;;;10385764;28;20277;-85
2020/12/10 02:54:43;;;;;;;40.63;19.73;;;5.40;99.90;;;;;;10349503;28;20707;-85
2020/12/10 03:00:09;;;;;;;42.70;21.00;;;5.50;99.90;;;;;;10351031;28;20207;-84
2020/12/10 03:05:30;;;;;;;41.50;21.07;;;5.10;99.90;;;;;;10387975;28;20187;-85
2020/12/10 03:10:53;;;;;;;41.17;20.37;;;5.20;99.90;;;;;;10385100;28;20595;-86
2020/12/10 03:16:16;;;;;;;39.27;19.30;;;5.10;99.90;;;;;;10368096;28;20239;-87
2020/12/10 03:21:37;;;;;;;41.17;20.97;;;5.30;99.90;;;;;;10347441;28;20219;-86
2020/12/10 03:26:59;;;;;;;37.23;18.97;;;5.40;99.90;;;;;;10381223;28;20189;-87
2020/12/10 03:32:22;;;;;;;35.40;18.93;;;5.30;99.90;;;;;;10379531;28;20245;-88
2020/12/10 03:37:43;;;;;;;36.20;19.70;;;5.40;99.90;;;;;;10386669;28;20578;-87
2020/12/10 03:43:05;;;;;;;38.17;19.40;;;5.30;99.90;;;;;;10380203;28;20230;-87
2020/12/10 03:48:28;;;;;;;31.90;18.07;;;5.10;99.90;;;;;;10345382;28;20668;-86
2020/12/10 03:53:49;;;;;;;32.97;17.57;;;4.90;99.90;;;;;;10374096;28;20222;-87
2020/12/10 03:59:13;;;;;;;33.53;18.40;;;4.80;99.90;;;;;;10371554;28;20568;-88
2020/12/10 04:04:36;;;;;;;40.33;19.50;;;4.70;99.90;;;;;;10385583;28;20199;-86
2020/12/10 04:09:57;;;;;;;37.17;20.53;;;4.90;99.90;;;;;;10384643;28;20294;-87
2020/12/10 04:15:19;;;;;;;39.97;20.27;;;5.00;99.90;;;;;;10383613;28;20213;-86
2020/12/10 04:20:41;;;;;;;38.97;20.47;;;5.00;99.90;;;;;;10414583;28;20582;-87
2020/12/10 04:26:04;;;;;;;41.13;20.67;;;5.10;99.90;;;;;;10352410;28;20194;-87
2020/12/10 04:31:26;;;;;;;37.67;20.20;;;5.10;99.90;;;;;;10383420;28;20210;-86
2020/12/10 04:36:48;;;;;;;45.20;22.37;;;5.00;99.90;;;;;;10383457;28;20218;-85
2020/12/10 04:42:10;;;;;;;39.27;20.90;;;5.10;99.90;;;;;;10383095;28;20215;-86
2020/12/10 04:47:33;;;;;;;42.67;22.97;;;5.20;99.90;;;;;;10382066;28;20190;-85
2020/12/10 04:52:57;;;;;;;53.63;24.37;;;5.10;99.90;;;;;;10380012;28;20218;-85
2020/12/10 04:58:19;;;;;;;57.43;25.80;;;5.10;99.90;;;;;;10380713;28;20217;-86
2020/12/10 05:03:45;;;;;;;59.40;26.63;;;5.20;99.90;;;;;;10340520;28;20242;-86
2020/12/10 05:09:09;;;;;;;60.73;28.00;;;5.30;99.90;;;;;;10349122;28;20199;-85
2020/12/10 05:14:45;;;;;;;59.20;26.63;;;5.20;99.90;;;;;;10368397;28;20205;-85
2020/12/10 05:20:07;;;;;;;51.00;26.70;;;5.10;99.90;;;;;;10397924;28;20206;-85
2020/12/10 05:25:29;;;;;;;48.53;24.80;;;5.00;99.90;;;;;;10377053;28;20280;-84
2020/12/10 05:31:10;;;;;;;41.70;22.03;;;4.90;99.90;;;;;;10376612;28;20243;-86
2020/12/10 05:36:33;;;;;;;40.23;20.40;;;4.70;99.90;;;;;;10370929;28;20225;-83
2020/12/10 05:41:55;;;;;;;44.30;20.80;;;4.50;99.90;;;;;;10360466;28;20224;-81
2020/12/10 05:47:17;;;;;;;56.23;22.70;;;4.80;99.90;;;;;;10385220;28;20277;-85
2020/12/10 05:52:44;;;;;;;44.30;22.20;;;4.90;99.90;;;;;;10364901;28;20221;-85
2020/12/10 05:58:08;;;;;;;54.87;23.83;;;4.90;99.90;;;;;;10381111;28;20672;-86
2020/12/10 06:03:30;;;;;;;44.17;22.33;;;4.90;99.90;;;;;;10384369;28;20224;-85
2020/12/10 06:08:51;;;;;;;45.80;22.33;;;4.80;99.90;;;;;;10383902;28;20578;-84
2020/12/10 06:14:14;;;;;;;45.30;21.53;;;4.70;99.90;;;;;;10352242;28;20190;-83
2020/12/10 06:19:37;;;;;;;43.40;22.70;;;4.70;99.90;;;;;;10353196;28;20208;-84
2020/12/10 06:24:59;;;;;;;45.90;22.07;;;4.70;99.90;;;;;;10362611;28;20190;-85
2020/12/10 06:30:22;;;;;;;42.00;22.93;;;4.80;99.90;;;;;;10378982;28;20222;-82
2020/12/10 06:35:44;;;;;;;43.03;21.93;;;4.70;99.90;;;;;;10407244;28;20244;-83
2020/12/10 06:41:06;;;;;;;37.63;19.30;;;4.50;99.90;;;;;;10378750;28;20215;-84
2020/12/10 06:46:28;;;;;;;41.83;22.17;;;4.50;99.90;;;;;;10372233;28;20687;-83
2020/12/10 06:52:07;;;;;;;42.33;21.10;;;4.60;99.90;;;;;;10363907;28;20697;-85
2020/12/10 06:57:49;;;;;;;45.43;21.60;;;4.70;99.90;;;;;;10382115;28;20630;-86
2020/12/10 07:03:22;;;;;;;55.03;22.53;;;4.80;99.90;;;;;;10405632;28;20222;-86
2020/12/10 07:08:59;;;;;;;44.93;21.40;;;4.90;99.90;;;;;;10407821;28;20197;-85
2020/12/10 07:14:23;;;;;;;47.23;21.23;;;4.80;99.90;;;;;;10413862;28;20198;-86
2020/12/10 07:19:46;;;;;;;44.93;21.87;;;4.70;99.90;;;;;;10386276;28;20219;-81
2020/12/10 07:25:08;;;;;;;43.00;19.60;;;4.60;99.90;;;;;;10371161;28;20286;-81
2020/12/10 07:30:30;;;;;;;43.53;20.93;;;4.60;99.90;;;;;;10385519;28;20219;-83
2020/12/10 07:35:53;;;;;;;45.53;20.77;;;4.70;99.90;;;;;;10386955;28;20282;-85
2020/12/10 07:41:15;;;;;;;52.73;21.07;;;4.90;99.90;;;;;;10401935;28;20229;-84
2020/12/10 07:46:38;;;;;;;46.10;21.13;;;4.70;99.90;;;;;;10387071;28;20198;-87
2020/12/10 07:52:05;;;;;;;37.17;20.37;;;4.60;99.90;;;;;;10430753;28;20237;-87
2020/12/10 07:57:31;;;;;;;42.67;21.07;;;4.60;99.90;;;;;;10403547;28;20241;-85
2020/12/10 08:03:04;;;;;;;43.33;21.37;;;4.60;99.90;;;;;;10402826;28;20225;-85
2020/12/10 08:08:39;;;;;;;43.27;21.27;;;4.80;99.90;;;;;;10373734;28;20199;-85
2020/12/10 08:14:03;;;;;;;46.17;22.43;;;4.80;99.90;;;;;;10415572;28;20222;-87
2020/12/10 08:19:27;;;;;;;45.63;22.00;;;4.50;99.90;;;;;;10388804;28;20222;-87
2020/12/10 08:24:49;;;;;;;43.00;21.40;;;4.60;99.90;;;;;;10372465;28;20191;-87
2020/12/10 08:30:11;;;;;;;47.13;21.83;;;4.30;99.90;;;;;;10404479;28;20253;-87
2020/12/10 08:35:41;;;;;;;41.67;20.73;;;4.30;99.90;;;;;;10385184;28;20210;-89
2020/12/10 08:41:07;;;;;;;50.80;22.80;;;4.50;99.90;;;;;;10374142;28;20215;-86
2020/12/10 08:46:30;;;;;;;45.57;21.77;;;4.60;99.90;;;;;;10415622;28;20191;-86
2020/12/10 08:51:56;;;;;;;49.17;23.37;;;4.50;99.90;;;;;;10411992;28;20221;-86
2020/12/10 08:57:20;;;;;;;53.80;23.40;;;4.30;99.90;;;;;;10410649;28;20226;-87
2020/12/10 09:02:44;;;;;;;53.27;22.93;;;4.30;99.90;;;;;;10375725;28;20289;-87
2020/12/10 09:08:06;;;;;;;58.03;25.67;;;4.60;99.90;;;;;;10381897;28;20256;-87
2020/12/10 09:13:30;;;;;;;54.33;24.10;;;4.60;99.90;;;;;;10418853;28;20213;-87
2020/12/10 09:18:54;;;;;;;50.13;23.03;;;4.60;99.90;;;;;;10453279;28;20248;-87
2020/12/10 09:24:19;;;;;;;51.13;24.03;;;4.60;99.90;;;;;;10398575;28;20249;-87
2020/12/10 09:29:44;;;;;;;44.13;21.43;;;4.60;99.90;;;;;;10408528;28;20210;-86
2020/12/10 09:35:11;;;;;;;39.30;20.47;;;4.50;99.90;;;;;;10413169;28;20222;-88
2020/12/10 09:40:38;;;;;;;44.13;20.93;;;4.50;99.90;;;;;;10400625;28;20229;-85
2020/12/10 09:46:05;;;;;;;41.67;19.83;;;4.20;99.90;;;;;;10436590;28;20805;-85
2020/12/10 09:51:34;;;;;;;40.47;20.17;;;4.30;99.90;;;;;;10451119;28;20241;-88
2020/12/10 09:57:06;;;;;;;43.40;20.37;;;4.50;99.90;;;;;;10386342;28;20207;-86
2020/12/10 10:02:29;;;;;;;42.97;21.73;;;4.50;99.90;;;;;;10373142;28;20231;-87
2020/12/10 10:07:53;;;;;;;44.30;21.20;;;4.70;99.90;;;;;;10372653;28;20192;-87
2020/12/10 10:13:16;;;;;;;48.93;21.63;;;4.60;99.90;;;;;;10371637;28;20215;-87
2020/12/10 10:18:39;;;;;;;48.17;22.07;;;4.50;99.90;;;;;;10428849;28;20213;-88
2020/12/10 10:24:01;;;;;;;50.03;22.10;;;4.70;99.90;;;;;;10420760;28;20218;-85
2020/12/10 10:29:23;;;;;;;50.03;23.00;;;4.70;99.90;;;;;;10374576;28;20246;-87
2020/12/10 10:34:46;;;;;;;47.33;21.90;;;4.60;99.90;;;;;;10399560;28;20234;-86
2020/12/10 10:40:07;;;;;;;48.50;22.93;;;4.40;99.90;;;;;;10368853;28;20264;-84
2020/12/10 10:45:29;;;;;;;55.20;25.67;;;4.40;99.90;;;;;;10407660;28;20262;-84
2020/12/10 10:50:53;;;;;;;48.73;24.30;;;4.80;99.90;;;;;;10372566;28;20211;-85
2020/12/10 10:56:19;;;;;;;57.57;25.73;;;5.10;99.90;;;;;;10405999;28;20214;-87
2020/12/10 11:01:41;;;;;;;56.83;25.73;;;5.10;99.90;;;;;;10399105;28;20282;-86
2020/12/10 11:07:05;;;;;;;59.07;27.17;;;5.10;99.90;;;;;;10363967;28;20251;-85
2020/12/10 11:12:27;;;;;;;59.03;26.40;;;4.80;99.90;;;;;;10402610;28;20274;-84
2020/12/10 11:17:48;;;;;;;54.80;26.67;;;4.60;99.90;;;;;;10394894;28;20257;-85
2020/12/10 11:23:13;;;;;;;61.00;27.27;;;4.50;99.90;;;;;;10383634;28;20219;-84
2020/12/10 11:28:35;;;;;;;50.30;24.63;;;4.40;99.90;;;;;;10402372;28;20222;-80
2020/12/10 11:33:57;;;;;;;54.00;24.70;;;4.50;99.90;;;;;;10422080;28;20244;-84
2020/12/10 11:39:20;;;;;;;53.77;26.63;;;4.60;99.90;;;;;;10433471;28;20229;-84
2020/12/10 11:44:42;;;;;;;54.60;26.80;;;4.90;99.90;;;;;;10390607;28;20223;-85
2020/12/10 11:50:04;;;;;;;52.20;25.90;;;4.70;99.90;;;;;;10393320;28;20214;-85
2020/12/10 11:55:31;;;;;;;53.17;26.10;;;4.80;99.90;;;;;;10392154;28;20246;-85
2020/12/10 12:00:53;;;;;;;52.80;25.83;;;5.10;99.90;;;;;;10437882;28;20293;-83
2020/12/10 12:06:15;;;;;;;60.83;27.63;;;5.10;99.90;;;;;;10443613;28;20265;-85
2020/12/10 12:11:38;;;;;;;49.20;24.70;;;5.20;99.90;;;;;;10435204;28;20289;-87
2020/12/10 12:17:00;;;;;;;53.47;26.30;;;5.00;99.90;;;;;;10403939;28;20221;-80
2020/12/10 12:22:22;;;;;;;50.37;24.57;;;4.70;99.90;;;;;;10427962;28;20340;-86
2020/12/10 12:27:45;;;;;;;46.83;24.47;;;4.30;99.90;;;;;;10354433;28;20230;-86
2020/12/10 12:33:07;;;;;;;51.57;24.93;;;4.40;99.90;;;;;;10377245;28;20284;-84
2020/12/10 12:38:30;;;;;;;48.27;24.17;;;4.40;99.90;;;;;;10390085;28;20236;-85
2020/12/10 12:43:53;;;;;;;48.70;23.43;;;4.60;99.90;;;;;;10390276;28;20297;-87
2020/12/10 12:49:16;;;;;;;49.13;23.80;;;4.60;99.90;;;;;;10389983;28;20195;-84
2020/12/10 12:54:37;;;;;;;44.23;24.27;;;4.40;99.90;;;;;;10344064;28;20196;-84
2020/12/10 13:00:00;;;;;;;52.20;25.40;;;4.50;99.90;;;;;;10339907;28;20223;-83
2020/12/10 13:05:22;;;;;;;54.77;26.80;;;4.60;99.90;;;;;;10283700;28;20291;-81
2020/12/10 13:10:44;;;;;;;58.23;26.77;;;4.50;99.90;;;;;;10294299;28;20299;-81
2020/12/10 13:16:06;;;;;;;61.17;27.50;;;4.50;99.90;;;;;;10311837;28;20212;-80
2020/12/10 13:21:28;;;;;;;63.10;29.63;;;4.40;99.90;;;;;;10289470;28;20653;-82
2020/12/10 13:26:51;;;;;;;63.60;28.30;;;4.70;99.90;;;;;;10325215;28;20191;-87
2020/12/10 13:32:15;;;;;;;58.43;26.87;;;4.80;99.90;;;;;;10315103;28;20259;-86
2020/12/10 13:37:37;;;;;;;62.43;27.17;;;4.80;99.90;;;;;;10312417;28;20247;-87
2020/12/10 13:42:59;;;;;;;60.13;27.43;;;4.60;99.90;;;;;;10320350;28;20299;-85
2020/12/10 13:48:21;;;;;;;64.57;29.60;;;4.60;99.90;;;;;;10319003;28;20259;-84
2020/12/10 13:53:49;;;;;;;60.40;26.57;;;4.50;99.90;;;;;;10325922;28;20224;-87
2020/12/10 13:59:11;;;;;;;65.30;27.63;;;4.50;99.90;;;;;;10322078;28;20216;-84
2020/12/10 14:04:34;;;;;;;64.23;27.43;;;4.50;99.90;;;;;;10419668;28;20209;-85
2020/12/10 14:09:58;;;;;;;59.73;26.50;;;4.50;99.90;;;;;;10431240;28;20310;-87
2020/12/10 14:15:19;;;;;;;55.87;24.27;;;4.60;99.90;;;;;;10430078;28;20205;-85
2020/12/10 14:20:42;;;;;;;52.63;25.13;;;4.10;99.90;;;;;;10377905;28;20708;-86
2020/12/10 14:26:04;;;;;;;59.80;28.30;;;4.10;99.90;;;;;;10366691;28;20230;-86
2020/12/10 14:31:27;;;;;;;61.93;28.13;;;4.20;99.90;;;;;;10375626;28;20616;-86
2020/12/10 14:36:50;;;;;;;57.43;25.87;;;4.40;99.90;;;;;;10398403;28;20218;-86
2020/12/10 14:42:12;;;;;;;59.40;25.00;;;4.30;99.90;;;;;;10387920;28;20207;-86
2020/12/10 14:47:33;;;;;;;52.10;24.53;;;4.30;99.90;;;;;;10408366;28;20205;-86
2020/12/10 14:52:58;;;;;;;57.93;25.87;;;4.30;99.90;;;;;;10410736;28;20211;-84
2020/12/10 14:58:20;;;;;;;51.97;24.10;;;4.40;99.90;;;;;;10408744;28;20241;-87
2020/12/10 15:03:42;;;;;;;55.83;25.17;;;4.30;99.90;;;;;;10400169;28;20260;-86
2020/12/10 15:09:05;;;;;;;54.27;24.50;;;4.10;99.90;;;;;;10408793;28;20196;-87
2020/12/10 15:14:27;;;;;;;54.07;25.13;;;4.10;99.90;;;;;;10447046;28;20284;-88
2020/12/10 15:19:49;;;;;;;62.23;26.53;;;4.10;99.90;;;;;;10416227;28;20679;-84
2020/12/10 15:25:11;;;;;;;62.47;27.03;;;4.00;99.90;;;;;;10403715;28;20250;-83
2020/12/10 15:30:33;;;;;;;57.93;25.93;;;4.00;99.90;;;;;;10400654;28;20299;-85
2020/12/10 15:35:55;;;;;;;60.63;26.20;;;4.00;99.90;;;;;;10398854;28;20209;-83
2020/12/10 15:41:17;;;;;;;63.27;25.30;;;4.10;99.90;;;;;;10379167;28;20224;-86
2020/12/10 15:46:41;;;;;;;57.87;24.70;;;4.10;99.90;;;;;;10400927;28;20225;-86
2020/12/10 17:40:42;;;;;;;50.33;20.43;;;3.20;99.90;;;;;;10603792;23;20230;-79
2020/12/10 17:46:04;;;;;;;45.87;20.97;;;3.40;99.90;;;;;;10280216;28;20196;-79
2020/12/10 17:51:28;;;;;;;48.87;20.57;;;3.30;99.90;;;;;;10274430;28;20273;-79
2020/12/10 17:56:51;;;;;;;42.97;20.73;;;3.30;99.90;;;;;;10266113;28;20245;-77
2020/12/10 18:02:13;;;;;;;45.50;20.90;;;3.10;99.90;;;;;;10289379;28;20223;-81
2020/12/10 18:07:35;;;;;;;47.63;20.27;;;3.20;99.90;;;;;;10274789;28;20263;-82
2020/12/10 18:12:57;;;;;;;49.57;21.03;;;3.50;99.90;;;;;;10283970;28;20689;-83
2020/12/10 18:18:19;;;;;;;41.00;20.90;;;3.50;99.90;;;;;;10289111;28;20219;-84
2020/12/10 18:23:41;;;;;;;51.33;20.87;;;3.50;99.90;;;;;;10290620;28;20302;-80
2020/12/10 18:29:04;;;;;;;46.33;20.73;;;3.30;99.90;;;;;;10292074;28;20188;-83
2020/12/10 18:34:26;;;;;;;45.63;20.57;;;3.30;99.90;;;;;;10294254;28;20196;-83
2020/12/10 18:39:51;;;;;;;46.97;21.13;;;3.40;99.90;;;;;;10270110;28;620860;-80
2020/12/10 18:45:13;;;;;;;47.57;22.10;;;3.30;99.90;;;;;;10270806;28;20197;-80
2020/12/10 18:50:36;;;;;;;53.07;22.53;;;3.20;99.90;;;;;;10262577;28;20303;-82
2020/12/10 18:55:58;;;;;;;52.20;23.03;;;3.20;99.90;;;;;;10265527;28;20219;-81
2020/12/10 19:01:21;;;;;;;54.03;23.53;;;3.20;99.90;;;;;;10258240;29;20232;-80
2020/12/10 19:06:44;;;;;;;54.60;23.57;;;3.10;99.90;;;;;;10293662;28;20315;-81
2020/12/10 19:12:06;;;;;;;53.20;24.03;;;3.10;99.90;;;;;;10286769;28;20316;-81
2020/12/10 19:17:32;;;;;;;59.23;23.63;;;3.10;99.90;;;;;;10304506;28;20796;-82
2020/12/10 19:22:54;;;;;;;59.60;24.33;;;3.30;99.90;;;;;;10291721;28;20808;-82
2020/12/10 19:28:16;;;;;;;56.20;23.30;;;3.30;99.90;;;;;;10256934;28;20224;-82
2020/12/10 19:33:38;;;;;;;56.47;24.43;;;3.30;99.90;;;;;;10289511;28;20239;-82
2020/12/10 19:39:00;;;;;;;54.97;22.23;;;3.30;99.90;;;;;;10297516;28;20778;-83
2020/12/10 19:44:22;;;;;;;48.93;21.33;;;3.20;99.90;;;;;;10305296;28;20202;-79
2020/12/10 19:49:45;;;;;;;45.73;21.47;;;3.20;99.90;;;;;;10287911;28;20369;-84
2020/12/10 19:55:07;;;;;;;45.37;19.93;;;3.10;99.90;;;;;;10257399;29;20196;-82
2020/12/10 20:00:29;;;;;;;45.73;21.00;;;3.10;99.90;;;;;;10258886;28;20282;-84
2020/12/10 20:05:51;;;;;;;47.07;21.67;;;3.30;99.90;;;;;;10256694;28;20266;-83
2020/12/10 20:11:16;;;;;;;50.07;20.97;;;3.20;99.90;;;;;;10316593;28;20686;-83
2020/12/10 20:16:38;;;;;;;44.90;21.13;;;3.00;99.90;;;;;;10298459;28;20225;-83
2020/12/10 20:22:01;;;;;;;43.80;20.47;;;3.10;99.90;;;;;;10338973;28;20308;-83
2020/12/10 20:27:22;;;;;;;45.20;21.20;;;3.10;99.90;;;;;;10324118;28;20229;-84
2020/12/10 20:32:47;;;;;;;45.60;21.90;;;3.10;99.90;;;;;;10308325;28;20239;-84
2020/12/10 20:38:12;;;;;;;54.27;20.97;;;3.10;99.90;;;;;;10295233;28;20228;-84
2020/12/10 20:43:34;;;;;;;45.90;21.37;;;3.40;99.90;;;;;;10278096;28;20234;-84
2020/12/10 20:48:56;;;;;;;47.13;20.50;;;3.10;99.90;;;;;;10306491;28;20249;-84
2020/12/10 20:54:19;;;;;;;43.03;19.43;;;3.10;99.90;;;;;;10293951;28;20201;-83
2020/12/10 20:59:40;;;;;;;40.27;20.10;;;3.10;99.90;;;;;;10293924;28;20332;-81
2020/12/10 21:05:02;;;;;;;41.30;20.33;;;3.10;99.90;;;;;;10271879;28;20195;-83
2020/12/10 21:10:25;;;;;;;43.13;20.13;;;3.20;99.90;;;;;;10253128;29;20228;-83
2020/12/10 21:15:48;;;;;;;48.73;21.73;;;3.10;99.90;;;;;;10254716;28;20199;-83
2020/12/10 21:21:11;;;;;;;45.17;20.97;;;3.20;99.90;;;;;;10329223;28;20207;-82
2020/12/10 21:26:34;;;;;;;48.67;21.53;;;3.20;99.90;;;;;;10324874;28;20190;-82
2020/12/10 21:31:56;;;;;;;42.40;20.83;;;3.20;99.90;;;;;;10292672;28;20249;-82
2020/12/10 21:37:17;;;;;;;47.33;20.93;;;3.30;99.90;;;;;;10292706;28;20695;-82
2020/12/10 21:42:40;;;;;;;44.57;20.87;;;3.20;99.90;;;;;;10295272;28;20220;-83
2020/12/10 21:48:02;;;;;;;48.37;21.70;;;3.20;99.90;;;;;;10297809;28;20194;-83
2020/12/10 21:53:24;;;;;;;54.30;22.70;;;3.10;99.90;;;;;;10290860;28;20613;-82
2020/12/10 21:58:46;;;;;;;45.40;21.30;;;3.30;99.90;;;;;;10291140;28;20221;-83
2020/12/10 22:04:08;;;;;;;45.70;20.87;;;3.20;99.90;;;;;;10277530;28;20222;-83
2020/12/10 22:09:30;;;;;;;55.80;23.23;;;3.30;99.90;;;;;;10292791;28;20266;-82
2020/12/10 22:14:53;;;;;;;53.83;22.90;;;3.20;99.90;;;;;;10252448;28;20298;-83
2020/12/10 22:20:14;;;;;;;59.13;24.77;;;3.10;99.90;;;;;;10313461;28;20223;-83
2020/12/10 22:25:36;;;;;;;64.20;25.17;;;3.10;99.90;;;;;;10350236;28;20259;-82
2020/12/10 22:30:59;;;;;;;59.57;23.70;;;3.10;99.90;;;;;;10326029;28;20214;-83
2020/12/10 22:36:21;;;;;;;55.60;24.27;;;3.10;99.90;;;;;;10310602;28;20214;-83
2020/12/10 22:41:43;;;;;;;57.27;24.87;;;3.10;99.90;;;;;;10299584;28;20229;-83
2020/12/10 22:47:05;;;;;;;57.97;23.77;;;3.10;99.90;;;;;;10299209;28;20694;-82
2020/12/10 22:52:27;;;;;;;57.77;24.70;;;3.20;99.90;;;;;;10296203;28;20222;-83
2020/12/10 22:57:48;;;;;;;56.63;25.30;;;3.10;99.90;;;;;;10298449;28;20220;-83
2020/12/10 23:03:11;;;;;;;58.20;23.63;;;3.10;99.90;;;;;;10297862;28;20796;-82
2020/12/10 23:08:33;;;;;;;59.23;24.77;;;3.20;99.90;;;;;;10296974;28;20567;-82
2020/12/10 23:13:55;;;;;;;63.10;24.67;;;3.20;99.90;;;;;;10297487;28;20577;-83
2020/12/10 23:19:18;;;;;;;58.93;24.83;;;3.10;99.90;;;;;;10309376;28;20301;-82
2020/12/10 23:24:40;;;;;;;55.40;25.00;;;3.20;99.90;;;;;;10297185;28;20788;-81
2020/12/10 23:30:02;;;;;;;62.00;26.13;;;3.20;99.90;;;;;;10298230;28;20297;-81
2020/12/10 23:35:24;;;;;;;58.23;25.07;;;3.20;99.90;;;;;;10295526;28;20207;-82
2020/12/10 23:40:46;;;;;;;53.20;23.97;;;3.20;99.90;;;;;;10295930;28;20251;-82
2020/12/10 23:46:09;;;;;;;56.30;24.10;;;3.10;99.90;;;;;;10294632;28;20745;-81
2020/12/10 23:51:38;;;;;;;55.73;23.73;;;3.10;99.90;;;;;;10277447;28;20240;-80
2020/12/10 23:57:00;;;;;;;62.13;24.23;;;3.10;99.90;;;;;;10294439;28;20216;-82
